sensor_id;sensor_type;location;lat;lon;timestamp;P1;durP1;ratioP1;P2;durP2;ratioP2
55170;SDS011;41060;47.510;8.680;2022-10-19T00:01:05;3.42;;;2.50;;
55170;SDS011;41060;47.510;8.680;2022-10-19T00:03:34;4.40;;;2.60;;
55170;SDS011;41060;47.510;8.680;2022-10-19T00:06:10;6.60;;;3.10;;
55170;SDS011;41060;47.510;8.680;2022-10-19T00:08:40;4.95;;;2.67;;
55170;SDS011;41060;47.510;8.680;2022-10-19T00:11:08;3.60;;;2.47;;
55170;SDS011;41060;47.510;8.680;2022-10-19T00:13:35;5.13;;;2.92;;
55170;SDS011;41060;47.510;8.680;2022-10-19T00:16:06;3.78;;;2.70;;
55170;SDS011;41060;47.510;8.680;2022-10-19T00:18:37;4.75;;;2.67;;
55170;SDS011;41060;47.510;8.680;2022-10-19T00:21:04;4.57;;;2.40;;
55170;SDS011;41060;47.510;8.680;2022-10-19T00:23:32;5.40;;;2.28;;
55170;SDS011;41060;47.510;8.680;2022-10-19T00:26:01;7.88;;;2.97;;
55170;SDS011;41060;47.510;8.680;2022-10-19T00:28:28;4.22;;;2.80;;
55170;SDS011;41060;47.510;8.680;2022-10-19T00:30:55;4.07;;;2.80;;
55170;SDS011;41060;47.510;8.680;2022-10-19T00:33:22;7.60;;;2.53;;
55170;SDS011;41060;47.510;8.680;2022-10-19T00:35:49;7.60;;;3.17;;
55170;SDS011;41060;47.510;8.680;2022-10-19T00:38:17;5.00;;;2.42;;
55170;SDS011;41060;47.510;8.680;2022-10-19T00:40:46;3.17;;;2.13;;
55170;SDS011;41060;47.510;8.680;2022-10-19T00:43:16;6.43;;;2.85;;
55170;SDS011;41060;47.510;8.680;2022-10-19T00:45:44;6.13;;;2.80;;
55170;SDS011;41060;47.510;8.680;2022-10-19T00:48:12;4.75;;;2.30;;
55170;SDS011;41060;47.510;8.680;2022-10-19T00:50:47;6.63;;;2.78;;
55170;SDS011;41060;47.510;8.680;2022-10-19T00:53:16;3.92;;;2.13;;
55170;SDS011;41060;47.510;8.680;2022-10-19T00:55:43;5.00;;;2.33;;
55170;SDS011;41060;47.510;8.680;2022-10-19T00:58:10;5.75;;;2.78;;
55170;SDS011;41060;47.510;8.680;2022-10-19T01:00:40;7.25;;;2.70;;
55170;SDS011;41060;47.510;8.680;2022-10-19T01:03:09;5.32;;;2.60;;
55170;SDS011;41060;47.510;8.680;2022-10-19T01:05:38;5.22;;;2.45;;
55170;SDS011;41060;47.510;8.680;2022-10-19T01:08:05;5.78;;;2.50;;
55170;SDS011;41060;47.510;8.680;2022-10-19T01:10:36;4.32;;;2.30;;
55170;SDS011;41060;47.510;8.680;2022-10-19T01:13:18;4.00;;;2.03;;
55170;SDS011;41060;47.510;8.680;2022-10-19T01:16:02;4.88;;;2.53;;
55170;SDS011;41060;47.510;8.680;2022-10-19T01:18:39;9.07;;;2.83;;
55170;SDS011;41060;47.510;8.680;2022-10-19T01:21:17;5.32;;;2.15;;
55170;SDS011;41060;47.510;8.680;2022-10-19T01:24:01;6.00;;;2.35;;
55170;SDS011;41060;47.510;8.680;2022-10-19T01:29:57;6.70;;;2.92;;
55170;SDS011;41060;47.510;8.680;2022-10-19T01:32:51;4.00;;;2.35;;
55170;SDS011;41060;47.510;8.680;2022-10-19T01:35:25;3.75;;;2.42;;
55170;SDS011;41060;47.510;8.680;2022-10-19T01:37:55;4.63;;;2.42;;
55170;SDS011;41060;47.510;8.680;2022-10-19T01:40:31;3.55;;;1.75;;
55170;SDS011;41060;47.510;8.680;2022-10-19T01:43:06;7.10;;;2.60;;
55170;SDS011;41060;47.510;8.680;2022-10-19T01:45:41;4.95;;;2.90;;
55170;SDS011;41060;47.510;8.680;2022-10-19T01:48:13;7.88;;;2.53;;
55170;SDS011;41060;47.510;8.680;2022-10-19T01:50:45;5.43;;;2.80;;
55170;SDS011;41060;47.510;8.680;2022-10-19T01:53:16;3.97;;;2.38;;
55170;SDS011;41060;47.510;8.680;2022-10-19T01:55:46;8.30;;;2.50;;
55170;SDS011;41060;47.510;8.680;2022-10-19T01:58:17;4.88;;;3.22;;
55170;SDS011;41060;47.510;8.680;2022-10-19T02:00:51;4.68;;;2.20;;
55170;SDS011;41060;47.510;8.680;2022-10-19T02:03:23;5.65;;;2.28;;
55170;SDS011;41060;47.510;8.680;2022-10-19T02:05:52;8.15;;;2.38;;
55170;SDS011;41060;47.510;8.680;2022-10-19T02:08:21;4.32;;;2.67;;
55170;SDS011;41060;47.510;8.680;2022-10-19T02:10:53;4.63;;;2.45;;
55170;SDS011;41060;47.510;8.680;2022-10-19T02:13:21;4.60;;;2.25;;
55170;SDS011;41060;47.510;8.680;2022-10-19T02:15:51;3.88;;;2.35;;
55170;SDS011;41060;47.510;8.680;2022-10-19T02:18:23;4.85;;;2.75;;
55170;SDS011;41060;47.510;8.680;2022-10-19T02:20:53;4.20;;;2.20;;
55170;SDS011;41060;47.510;8.680;2022-10-19T02:23:21;8.05;;;2.78;;
55170;SDS011;41060;47.510;8.680;2022-10-19T02:25:51;5.00;;;2.88;;
55170;SDS011;41060;47.510;8.680;2022-10-19T02:28:18;6.28;;;2.70;;
55170;SDS011;41060;47.510;8.680;2022-10-19T02:30:45;6.60;;;2.58;;
55170;SDS011;41060;47.510;8.680;2022-10-19T02:33:14;6.50;;;2.75;;
55170;SDS011;41060;47.510;8.680;2022-10-19T02:35:41;8.52;;;2.88;;
55170;SDS011;41060;47.510;8.680;2022-10-19T02:38:09;6.05;;;3.28;;
55170;SDS011;41060;47.510;8.680;2022-10-19T02:40:40;5.93;;;3.40;;
55170;SDS011;41060;47.510;8.680;2022-10-19T02:43:10;4.53;;;2.72;;
55170;SDS011;41060;47.510;8.680;2022-10-19T02:45:45;5.90;;;3.10;;
55170;SDS011;41060;47.510;8.680;2022-10-19T02:48:18;4.95;;;2.65;;
55170;SDS011;41060;47.510;8.680;2022-10-19T02:50:49;5.55;;;2.63;;
55170;SDS011;41060;47.510;8.680;2022-10-19T02:53:16;7.88;;;3.72;;
55170;SDS011;41060;47.510;8.680;2022-10-19T02:55:43;5.88;;;2.47;;
55170;SDS011;41060;47.510;8.680;2022-10-19T02:58:14;4.47;;;2.58;;
55170;SDS011;41060;47.510;8.680;2022-10-19T03:00:41;3.47;;;2.38;;
55170;SDS011;41060;47.510;8.680;2022-10-19T03:03:08;5.68;;;3.35;;
55170;SDS011;41060;47.510;8.680;2022-10-19T03:05:37;4.82;;;3.13;;
55170;SDS011;41060;47.510;8.680;2022-10-19T03:08:04;6.10;;;2.70;;
55170;SDS011;41060;47.510;8.680;2022-10-19T03:10:31;5.65;;;2.75;;
55170;SDS011;41060;47.510;8.680;2022-10-19T03:12:58;5.25;;;2.88;;
55170;SDS011;41060;47.510;8.680;2022-10-19T03:15:25;5.53;;;3.35;;
55170;SDS011;41060;47.510;8.680;2022-10-19T03:17:53;4.50;;;3.08;;
55170;SDS011;41060;47.510;8.680;2022-10-19T03:20:21;7.80;;;2.70;;
55170;SDS011;41060;47.510;8.680;2022-10-19T03:22:49;3.50;;;2.60;;
55170;SDS011;41060;47.510;8.680;2022-10-19T03:25:16;7.28;;;2.75;;
55170;SDS011;41060;47.510;8.680;2022-10-19T03:27:43;9.02;;;3.30;;
55170;SDS011;41060;47.510;8.680;2022-10-19T03:30:10;6.93;;;3.20;;
55170;SDS011;41060;47.510;8.680;2022-10-19T03:32:37;4.13;;;3.03;;
55170;SDS011;41060;47.510;8.680;2022-10-19T03:35:05;5.28;;;3.22;;
55170;SDS011;41060;47.510;8.680;2022-10-19T03:37:32;6.18;;;3.35;;
55170;SDS011;41060;47.510;8.680;2022-10-19T03:40:03;6.13;;;3.05;;
55170;SDS011;41060;47.510;8.680;2022-10-19T03:42:31;7.25;;;3.25;;
55170;SDS011;41060;47.510;8.680;2022-10-19T03:44:57;6.13;;;3.20;;
55170;SDS011;41060;47.510;8.680;2022-10-19T03:47:24;4.45;;;3.00;;
55170;SDS011;41060;47.510;8.680;2022-10-19T03:49:51;8.05;;;3.70;;
55170;SDS011;41060;47.510;8.680;2022-10-19T03:52:18;5.80;;;3.03;;
55170;SDS011;41060;47.510;8.680;2022-10-19T03:54:45;6.32;;;3.67;;
55170;SDS011;41060;47.510;8.680;2022-10-19T03:57:20;10.73;;;3.50;;
55170;SDS011;41060;47.510;8.680;2022-10-19T03:59:47;8.70;;;2.78;;
55170;SDS011;41060;47.510;8.680;2022-10-19T04:02:14;5.35;;;2.80;;
55170;SDS011;41060;47.510;8.680;2022-10-19T04:04:41;10.10;;;3.15;;
55170;SDS011;41060;47.510;8.680;2022-10-19T04:07:10;4.18;;;2.67;;
55170;SDS011;41060;47.510;8.680;2022-10-19T04:09:37;14.05;;;3.70;;
55170;SDS011;41060;47.510;8.680;2022-10-19T04:12:05;5.63;;;3.00;;
55170;SDS011;41060;47.510;8.680;2022-10-19T04:14:33;9.18;;;3.08;;
55170;SDS011;41060;47.510;8.680;2022-10-19T04:16:59;9.75;;;2.80;;
55170;SDS011;41060;47.510;8.680;2022-10-19T04:19:27;4.97;;;2.75;;
55170;SDS011;41060;47.510;8.680;2022-10-19T04:21:54;5.15;;;2.63;;
55170;SDS011;41060;47.510;8.680;2022-10-19T04:24:21;6.38;;;3.08;;
55170;SDS011;41060;47.510;8.680;2022-10-19T04:26:48;8.57;;;3.33;;
55170;SDS011;41060;47.510;8.680;2022-10-19T04:29:17;5.93;;;3.15;;
55170;SDS011;41060;47.510;8.680;2022-10-19T04:31:47;6.35;;;2.78;;
55170;SDS011;41060;47.510;8.680;2022-10-19T04:34:15;9.35;;;3.15;;
55170;SDS011;41060;47.510;8.680;2022-10-19T04:36:41;6.10;;;3.10;;
55170;SDS011;41060;47.510;8.680;2022-10-19T04:39:08;4.15;;;3.00;;
55170;SDS011;41060;47.510;8.680;2022-10-19T04:41:36;6.03;;;3.38;;
55170;SDS011;41060;47.510;8.680;2022-10-19T04:44:06;4.70;;;3.03;;
55170;SDS011;41060;47.510;8.680;2022-10-19T04:46:33;5.72;;;2.78;;
55170;SDS011;41060;47.510;8.680;2022-10-19T04:49:02;6.13;;;2.88;;
55170;SDS011;41060;47.510;8.680;2022-10-19T04:51:30;6.75;;;3.40;;
55170;SDS011;41060;47.510;8.680;2022-10-19T04:53:57;6.28;;;3.28;;
55170;SDS011;41060;47.510;8.680;2022-10-19T04:56:25;6.75;;;3.10;;
55170;SDS011;41060;47.510;8.680;2022-10-19T04:58:53;9.00;;;3.45;;
55170;SDS011;41060;47.510;8.680;2022-10-19T05:01:20;6.50;;;2.95;;
55170;SDS011;41060;47.510;8.680;2022-10-19T05:03:51;5.68;;;3.13;;
55170;SDS011;41060;47.510;8.680;2022-10-19T05:06:20;6.53;;;3.22;;
55170;SDS011;41060;47.510;8.680;2022-10-19T05:08:48;7.18;;;2.75;;
55170;SDS011;41060;47.510;8.680;2022-10-19T05:11:15;6.38;;;3.50;;
55170;SDS011;41060;47.510;8.680;2022-10-19T05:13:43;7.50;;;3.00;;
55170;SDS011;41060;47.510;8.680;2022-10-19T05:16:13;5.45;;;3.00;;
55170;SDS011;41060;47.510;8.680;2022-10-19T05:18:42;5.03;;;2.53;;
55170;SDS011;41060;47.510;8.680;2022-10-19T05:21:13;6.82;;;3.72;;
55170;SDS011;41060;47.510;8.680;2022-10-19T05:23:42;6.53;;;2.85;;
55170;SDS011;41060;47.510;8.680;2022-10-19T05:26:09;11.63;;;3.75;;
55170;SDS011;41060;47.510;8.680;2022-10-19T05:28:38;5.40;;;2.83;;
55170;SDS011;41060;47.510;8.680;2022-10-19T05:31:06;7.47;;;4.10;;
55170;SDS011;41060;47.510;8.680;2022-10-19T05:33:34;6.57;;;3.50;;
55170;SDS011;41060;47.510;8.680;2022-10-19T05:36:12;7.18;;;4.13;;
55170;SDS011;41060;47.510;8.680;2022-10-19T05:38:41;6.85;;;3.30;;
55170;SDS011;41060;47.510;8.680;2022-10-19T05:41:09;4.28;;;2.97;;
55170;SDS011;41060;47.510;8.680;2022-10-19T05:43:36;5.95;;;3.13;;
55170;SDS011;41060;47.510;8.680;2022-10-19T05:46:03;7.47;;;4.22;;
55170;SDS011;41060;47.510;8.680;2022-10-19T05:48:31;7.60;;;3.72;;
55170;SDS011;41060;47.510;8.680;2022-10-19T05:51:02;6.20;;;3.70;;
55170;SDS011;41060;47.510;8.680;2022-10-19T05:53:32;6.88;;;3.25;;
55170;SDS011;41060;47.510;8.680;2022-10-19T05:56:01;7.53;;;3.70;;
55170;SDS011;41060;47.510;8.680;2022-10-19T05:58:30;7.00;;;3.30;;
55170;SDS011;41060;47.510;8.680;2022-10-19T06:00:57;9.52;;;4.07;;
55170;SDS011;41060;47.510;8.680;2022-10-19T06:03:25;8.25;;;4.10;;
55170;SDS011;41060;47.510;8.680;2022-10-19T06:05:53;7.18;;;3.95;;
55170;SDS011;41060;47.510;8.680;2022-10-19T06:08:24;8.25;;;4.55;;
55170;SDS011;41060;47.510;8.680;2022-10-19T06:10:51;6.15;;;3.95;;
55170;SDS011;41060;47.510;8.680;2022-10-19T06:13:19;11.73;;;4.68;;
55170;SDS011;41060;47.510;8.680;2022-10-19T06:15:49;8.23;;;4.50;;
55170;SDS011;41060;47.510;8.680;2022-10-19T06:18:18;8.65;;;4.63;;
55170;SDS011;41060;47.510;8.680;2022-10-19T06:20:50;8.45;;;4.57;;
55170;SDS011;41060;47.510;8.680;2022-10-19T06:23:18;10.80;;;5.30;;
55170;SDS011;41060;47.510;8.680;2022-10-19T06:25:44;14.15;;;5.65;;
55170;SDS011;41060;47.510;8.680;2022-10-19T06:28:12;14.75;;;5.95;;
55170;SDS011;41060;47.510;8.680;2022-10-19T06:30:40;9.57;;;5.50;;
55170;SDS011;41060;47.510;8.680;2022-10-19T06:33:07;8.80;;;4.32;;
55170;SDS011;41060;47.510;8.680;2022-10-19T06:35:34;9.93;;;4.32;;
55170;SDS011;41060;47.510;8.680;2022-10-19T06:38:02;9.70;;;6.05;;
55170;SDS011;41060;47.510;8.680;2022-10-19T06:40:29;9.00;;;4.93;;
55170;SDS011;41060;47.510;8.680;2022-10-19T06:42:56;11.98;;;5.75;;
55170;SDS011;41060;47.510;8.680;2022-10-19T06:45:23;9.52;;;4.72;;
55170;SDS011;41060;47.510;8.680;2022-10-19T06:47:51;13.15;;;5.15;;
55170;SDS011;41060;47.510;8.680;2022-10-19T06:50:18;14.10;;;5.13;;
55170;SDS011;41060;47.510;8.680;2022-10-19T06:52:45;10.82;;;6.10;;
55170;SDS011;41060;47.510;8.680;2022-10-19T06:55:13;9.48;;;6.18;;
55170;SDS011;41060;47.510;8.680;2022-10-19T06:57:42;12.75;;;5.88;;
55170;SDS011;41060;47.510;8.680;2022-10-19T07:00:10;10.43;;;6.07;;
55170;SDS011;41060;47.510;8.680;2022-10-19T07:02:37;10.27;;;5.50;;
55170;SDS011;41060;47.510;8.680;2022-10-19T07:05:06;9.90;;;5.68;;
55170;SDS011;41060;47.510;8.680;2022-10-19T07:07:34;10.23;;;5.50;;
55170;SDS011;41060;47.510;8.680;2022-10-19T07:10:01;9.93;;;6.07;;
55170;SDS011;41060;47.510;8.680;2022-10-19T07:12:29;9.82;;;6.03;;
55170;SDS011;41060;47.510;8.680;2022-10-19T07:14:58;10.30;;;6.70;;
55170;SDS011;41060;47.510;8.680;2022-10-19T07:17:25;12.40;;;7.40;;
55170;SDS011;41060;47.510;8.680;2022-10-19T07:19:52;14.70;;;6.78;;
55170;SDS011;41060;47.510;8.680;2022-10-19T07:22:20;13.23;;;7.18;;
55170;SDS011;41060;47.510;8.680;2022-10-19T07:24:50;16.98;;;7.68;;
55170;SDS011;41060;47.510;8.680;2022-10-19T07:27:17;16.95;;;6.63;;
55170;SDS011;41060;47.510;8.680;2022-10-19T07:29:44;18.38;;;8.13;;
55170;SDS011;41060;47.510;8.680;2022-10-19T07:32:11;17.35;;;7.78;;
55170;SDS011;41060;47.510;8.680;2022-10-19T07:34:38;17.23;;;7.97;;
55170;SDS011;41060;47.510;8.680;2022-10-19T07:37:05;20.92;;;7.35;;
55170;SDS011;41060;47.510;8.680;2022-10-19T07:39:33;22.02;;;7.68;;
55170;SDS011;41060;47.510;8.680;2022-10-19T07:42:00;16.42;;;8.45;;
55170;SDS011;41060;47.510;8.680;2022-10-19T07:44:30;17.92;;;9.10;;
55170;SDS011;41060;47.510;8.680;2022-10-19T07:46:57;15.73;;;7.90;;
55170;SDS011;41060;47.510;8.680;2022-10-19T07:49:24;19.02;;;7.72;;
55170;SDS011;41060;47.510;8.680;2022-10-19T07:51:51;16.70;;;7.97;;
55170;SDS011;41060;47.510;8.680;2022-10-19T07:54:19;19.33;;;7.22;;
55170;SDS011;41060;47.510;8.680;2022-10-19T07:56:48;19.17;;;6.85;;
55170;SDS011;41060;47.510;8.680;2022-10-19T07:59:15;18.00;;;6.72;;
55170;SDS011;41060;47.510;8.680;2022-10-19T08:01:42;18.42;;;7.28;;
55170;SDS011;41060;47.510;8.680;2022-10-19T08:04:09;12.07;;;6.05;;
55170;SDS011;41060;47.510;8.680;2022-10-19T08:06:36;15.27;;;6.15;;
55170;SDS011;41060;47.510;8.680;2022-10-19T08:09:03;15.98;;;7.15;;
55170;SDS011;41060;47.510;8.680;2022-10-19T08:11:31;13.25;;;6.10;;
55170;SDS011;41060;47.510;8.680;2022-10-19T08:14:00;12.75;;;6.22;;
55170;SDS011;41060;47.510;8.680;2022-10-19T08:16:28;13.05;;;5.75;;
55170;SDS011;41060;47.510;8.680;2022-10-19T08:18:59;9.35;;;5.65;;
55170;SDS011;41060;47.510;8.680;2022-10-19T08:21:28;11.02;;;5.22;;
55170;SDS011;41060;47.510;8.680;2022-10-19T08:23:55;16.23;;;5.32;;
55170;SDS011;41060;47.510;8.680;2022-10-19T08:26:23;11.35;;;6.00;;
55170;SDS011;41060;47.510;8.680;2022-10-19T08:28:49;10.35;;;6.00;;
55170;SDS011;41060;47.510;8.680;2022-10-19T08:31:18;17.75;;;6.55;;
55170;SDS011;41060;47.510;8.680;2022-10-19T08:33:48;14.68;;;6.25;;
55170;SDS011;41060;47.510;8.680;2022-10-19T08:36:17;10.15;;;6.22;;
55170;SDS011;41060;47.510;8.680;2022-10-19T08:38:48;11.10;;;6.07;;
55170;SDS011;41060;47.510;8.680;2022-10-19T08:41:19;12.18;;;6.78;;
55170;SDS011;41060;47.510;8.680;2022-10-19T08:43:54;13.75;;;5.88;;
55170;SDS011;41060;47.510;8.680;2022-10-19T08:46:30;9.30;;;5.32;;
55170;SDS011;41060;47.510;8.680;2022-10-19T08:49:05;10.63;;;6.47;;
55170;SDS011;41060;47.510;8.680;2022-10-19T08:51:35;10.02;;;5.38;;
55170;SDS011;41060;47.510;8.680;2022-10-19T08:54:06;11.70;;;6.13;;
55170;SDS011;41060;47.510;8.680;2022-10-19T08:56:42;10.60;;;4.90;;
55170;SDS011;41060;47.510;8.680;2022-10-19T08:59:20;11.77;;;5.65;;
55170;SDS011;41060;47.510;8.680;2022-10-19T09:01:57;10.77;;;4.97;;
55170;SDS011;41060;47.510;8.680;2022-10-19T09:04:29;11.18;;;5.38;;
55170;SDS011;41060;47.510;8.680;2022-10-19T09:07:12;10.98;;;5.60;;
55170;SDS011;41060;47.510;8.680;2022-10-19T09:09:54;16.83;;;5.90;;
55170;SDS011;41060;47.510;8.680;2022-10-19T09:15:13;9.90;;;6.13;;
55170;SDS011;41060;47.510;8.680;2022-10-19T09:17:48;9.63;;;5.50;;
55170;SDS011;41060;47.510;8.680;2022-10-19T09:20:16;12.18;;;5.40;;
55170;SDS011;41060;47.510;8.680;2022-10-19T09:22:46;14.50;;;7.28;;
55170;SDS011;41060;47.510;8.680;2022-10-19T09:25:20;9.45;;;5.47;;
55170;SDS011;41060;47.510;8.680;2022-10-19T09:27:51;12.23;;;5.43;;
55170;SDS011;41060;47.510;8.680;2022-10-19T09:30:26;13.45;;;6.60;;
55170;SDS011;41060;47.510;8.680;2022-10-19T09:32:57;10.93;;;5.22;;
55170;SDS011;41060;47.510;8.680;2022-10-19T09:35:26;9.90;;;4.65;;
55170;SDS011;41060;47.510;8.680;2022-10-19T09:38:03;10.80;;;5.30;;
55170;SDS011;41060;47.510;8.680;2022-10-19T09:40:32;9.70;;;5.13;;
55170;SDS011;41060;47.510;8.680;2022-10-19T09:43:00;11.43;;;5.88;;
55170;SDS011;41060;47.510;8.680;2022-10-19T09:45:46;9.52;;;5.43;;
55170;SDS011;41060;47.510;8.680;2022-10-19T09:48:22;8.45;;;4.78;;
55170;SDS011;41060;47.510;8.680;2022-10-19T09:50:57;12.63;;;5.85;;
55170;SDS011;41060;47.510;8.680;2022-10-19T09:53:25;11.55;;;4.97;;
55170;SDS011;41060;47.510;8.680;2022-10-19T09:55:58;9.32;;;4.60;;
55170;SDS011;41060;47.510;8.680;2022-10-19T09:58:32;12.75;;;5.28;;
55170;SDS011;41060;47.510;8.680;2022-10-19T10:01:00;9.50;;;5.35;;
55170;SDS011;41060;47.510;8.680;2022-10-19T10:03:30;10.35;;;5.47;;
55170;SDS011;41060;47.510;8.680;2022-10-19T10:06:04;8.25;;;4.40;;
55170;SDS011;41060;47.510;8.680;2022-10-19T10:08:34;9.82;;;5.00;;
55170;SDS011;41060;47.510;8.680;2022-10-19T10:11:04;10.40;;;5.80;;
55170;SDS011;41060;47.510;8.680;2022-10-19T10:13:35;11.88;;;4.95;;
55170;SDS011;41060;47.510;8.680;2022-10-19T10:16:05;12.88;;;6.07;;
55170;SDS011;41060;47.510;8.680;2022-10-19T10:18:36;12.07;;;6.18;;
55170;SDS011;41060;47.510;8.680;2022-10-19T10:21:13;12.30;;;5.65;;
55170;SDS011;41060;47.510;8.680;2022-10-19T10:23:57;13.20;;;6.30;;
55170;SDS011;41060;47.510;8.680;2022-10-19T10:26:26;9.07;;;5.00;;
55170;SDS011;41060;47.510;8.680;2022-10-19T10:28:53;14.48;;;5.30;;
55170;SDS011;41060;47.510;8.680;2022-10-19T10:31:21;11.05;;;4.93;;
55170;SDS011;41060;47.510;8.680;2022-10-19T10:33:53;7.88;;;4.32;;
55170;SDS011;41060;47.510;8.680;2022-10-19T10:36:23;9.38;;;4.65;;
55170;SDS011;41060;47.510;8.680;2022-10-19T10:38:54;10.73;;;5.15;;
55170;SDS011;41060;47.510;8.680;2022-10-19T10:41:27;7.80;;;4.63;;
55170;SDS011;41060;47.510;8.680;2022-10-19T10:43:58;9.55;;;4.43;;
55170;SDS011;41060;47.510;8.680;2022-10-19T10:46:28;11.43;;;5.32;;
55170;SDS011;41060;47.510;8.680;2022-10-19T10:51:32;12.77;;;5.72;;
55170;SDS011;41060;47.510;8.680;2022-10-19T10:54:14;14.93;;;4.60;;
55170;SDS011;41060;47.510;8.680;2022-10-19T10:56:44;11.25;;;4.85;;
55170;SDS011;41060;47.510;8.680;2022-10-19T10:59:29;11.18;;;5.10;;
55170;SDS011;41060;47.510;8.680;2022-10-19T11:02:01;8.85;;;5.00;;
55170;SDS011;41060;47.510;8.680;2022-10-19T11:04:37;7.88;;;4.35;;
55170;SDS011;41060;47.510;8.680;2022-10-19T11:07:09;9.90;;;4.82;;
55170;SDS011;41060;47.510;8.680;2022-10-19T11:09:43;7.15;;;4.82;;
55170;SDS011;41060;47.510;8.680;2022-10-19T11:12:16;6.65;;;3.70;;
55170;SDS011;41060;47.510;8.680;2022-10-19T11:14:50;8.80;;;4.40;;
55170;SDS011;41060;47.510;8.680;2022-10-19T11:17:26;7.65;;;4.55;;
55170;SDS011;41060;47.510;8.680;2022-10-19T11:19:58;8.07;;;4.55;;
55170;SDS011;41060;47.510;8.680;2022-10-19T11:22:26;7.38;;;4.30;;
55170;SDS011;41060;47.510;8.680;2022-10-19T11:25:07;7.65;;;4.78;;
55170;SDS011;41060;47.510;8.680;2022-10-19T11:27:49;6.68;;;3.60;;
55170;SDS011;41060;47.510;8.680;2022-10-19T11:30:23;8.82;;;4.65;;
55170;SDS011;41060;47.510;8.680;2022-10-19T11:32:54;8.10;;;4.80;;
55170;SDS011;41060;47.510;8.680;2022-10-19T11:35:33;6.50;;;4.35;;
55170;SDS011;41060;47.510;8.680;2022-10-19T11:38:13;7.75;;;3.90;;
55170;SDS011;41060;47.510;8.680;2022-10-19T11:40:50;8.30;;;4.80;;
55170;SDS011;41060;47.510;8.680;2022-10-19T11:43:28;7.78;;;3.95;;
55170;SDS011;41060;47.510;8.680;2022-10-19T11:46:03;12.48;;;4.70;;
55170;SDS011;41060;47.510;8.680;2022-10-19T11:51:31;8.15;;;3.70;;
55170;SDS011;41060;47.510;8.680;2022-10-19T11:54:08;5.75;;;3.65;;
55170;SDS011;41060;47.510;8.680;2022-10-19T11:56:46;7.93;;;4.28;;
55170;SDS011;41060;47.510;8.680;2022-10-19T11:59:20;8.52;;;4.90;;
55170;SDS011;41060;47.510;8.680;2022-10-19T12:01:59;10.10;;;4.72;;
55170;SDS011;41060;47.510;8.680;2022-10-19T12:04:41;6.32;;;3.78;;
55170;SDS011;41060;47.510;8.680;2022-10-19T12:10:12;8.18;;;3.75;;
55170;SDS011;41060;47.510;8.680;2022-10-19T12:12:47;9.52;;;4.57;;
55170;SDS011;41060;47.510;8.680;2022-10-19T12:15:21;8.07;;;4.57;;
55170;SDS011;41060;47.510;8.680;2022-10-19T12:17:53;8.45;;;4.70;;
55170;SDS011;41060;47.510;8.680;2022-10-19T12:20:25;6.80;;;4.05;;
55170;SDS011;41060;47.510;8.680;2022-10-19T12:23:17;8.73;;;4.07;;
55170;SDS011;41060;47.510;8.680;2022-10-19T12:25:49;8.23;;;4.22;;
55170;SDS011;41060;47.510;8.680;2022-10-19T12:28:20;7.28;;;4.22;;
55170;SDS011;41060;47.510;8.680;2022-10-19T12:30:50;9.68;;;4.63;;
55170;SDS011;41060;47.510;8.680;2022-10-19T12:33:20;11.02;;;3.83;;
55170;SDS011;41060;47.510;8.680;2022-10-19T12:38:27;10.93;;;4.07;;
55170;SDS011;41060;47.510;8.680;2022-10-19T12:41:02;7.53;;;4.18;;
55170;SDS011;41060;47.510;8.680;2022-10-19T12:43:40;6.03;;;3.55;;
55170;SDS011;41060;47.510;8.680;2022-10-19T12:46:20;8.02;;;3.63;;
55170;SDS011;41060;47.510;8.680;2022-10-19T12:52:02;8.18;;;4.28;;
55170;SDS011;41060;47.510;8.680;2022-10-19T12:54:34;5.85;;;3.45;;
55170;SDS011;41060;47.510;8.680;2022-10-19T12:57:03;8.13;;;4.22;;
55170;SDS011;41060;47.510;8.680;2022-10-19T12:59:55;9.02;;;3.80;;
55170;SDS011;41060;47.510;8.680;2022-10-19T13:02:26;7.68;;;3.55;;
55170;SDS011;41060;47.510;8.680;2022-10-19T13:04:56;7.07;;;4.15;;
55170;SDS011;41060;47.510;8.680;2022-10-19T13:07:23;7.55;;;3.92;;
55170;SDS011;41060;47.510;8.680;2022-10-19T13:09:59;10.02;;;3.67;;
55170;SDS011;41060;47.510;8.680;2022-10-19T13:21:43;5.97;;;3.05;;
55170;SDS011;41060;47.510;8.680;2022-10-19T13:24:26;7.25;;;3.22;;
55170;SDS011;41060;47.510;8.680;2022-10-19T13:30:04;10.32;;;4.20;;
55170;SDS011;41060;47.510;8.680;2022-10-19T13:32:51;8.57;;;3.67;;
55170;SDS011;41060;47.510;8.680;2022-10-19T13:35:20;6.85;;;4.05;;
55170;SDS011;41060;47.510;8.680;2022-10-19T13:40:59;6.03;;;3.33;;
55170;SDS011;41060;47.510;8.680;2022-10-19T13:43:31;3.75;;;2.60;;
55170;SDS011;41060;47.510;8.680;2022-10-19T13:46:06;5.00;;;2.90;;
55170;SDS011;41060;47.510;8.680;2022-10-19T13:48:52;11.27;;;3.20;;
55170;SDS011;41060;47.510;8.680;2022-10-19T13:51:36;5.53;;;3.20;;
55170;SDS011;41060;47.510;8.680;2022-10-19T13:54:19;6.38;;;2.75;;
55170;SDS011;41060;47.510;8.680;2022-10-19T13:57:01;4.63;;;2.97;;
55170;SDS011;41060;47.510;8.680;2022-10-19T13:59:50;4.45;;;2.80;;
55170;SDS011;41060;47.510;8.680;2022-10-19T14:02:33;8.55;;;3.17;;
55170;SDS011;41060;47.510;8.680;2022-10-19T14:05:24;8.82;;;3.60;;
55170;SDS011;41060;47.510;8.680;2022-10-19T14:08:06;7.03;;;3.13;;
55170;SDS011;41060;47.510;8.680;2022-10-19T14:10:42;6.13;;;2.67;;
55170;SDS011;41060;47.510;8.680;2022-10-19T14:13:13;4.47;;;2.88;;
55170;SDS011;41060;47.510;8.680;2022-10-19T14:15:49;4.63;;;2.78;;
55170;SDS011;41060;47.510;8.680;2022-10-19T14:18:24;5.13;;;2.63;;
55170;SDS011;41060;47.510;8.680;2022-10-19T14:20:56;4.55;;;2.45;;
55170;SDS011;41060;47.510;8.680;2022-10-19T14:23:25;6.30;;;2.75;;
55170;SDS011;41060;47.510;8.680;2022-10-19T14:25:54;3.53;;;2.17;;
55170;SDS011;41060;47.510;8.680;2022-10-19T14:28:24;7.57;;;2.55;;
55170;SDS011;41060;47.510;8.680;2022-10-19T14:30:57;5.72;;;2.97;;
55170;SDS011;41060;47.510;8.680;2022-10-19T14:33:26;7.95;;;2.50;;
55170;SDS011;41060;47.510;8.680;2022-10-19T14:35:54;6.78;;;2.95;;
55170;SDS011;41060;47.510;8.680;2022-10-19T14:38:23;5.25;;;2.47;;
55170;SDS011;41060;47.510;8.680;2022-10-19T14:40:55;5.40;;;2.53;;
55170;SDS011;41060;47.510;8.680;2022-10-19T14:43:23;3.90;;;2.63;;
55170;SDS011;41060;47.510;8.680;2022-10-19T14:46:12;3.90;;;2.70;;
55170;SDS011;41060;47.510;8.680;2022-10-19T14:48:41;3.97;;;2.30;;
55170;SDS011;41060;47.510;8.680;2022-10-19T14:51:15;4.07;;;2.20;;
55170;SDS011;41060;47.510;8.680;2022-10-19T14:53:51;3.90;;;2.53;;
55170;SDS011;41060;47.510;8.680;2022-10-19T14:56:22;4.65;;;2.63;;
55170;SDS011;41060;47.510;8.680;2022-10-19T14:58:58;5.25;;;3.10;;
55170;SDS011;41060;47.510;8.680;2022-10-19T15:01:28;4.75;;;2.83;;
55170;SDS011;41060;47.510;8.680;2022-10-19T15:03:56;3.67;;;2.67;;
55170;SDS011;41060;47.510;8.680;2022-10-19T15:06:23;4.47;;;2.30;;
55170;SDS011;41060;47.510;8.680;2022-10-19T15:08:53;4.57;;;2.70;;
55170;SDS011;41060;47.510;8.680;2022-10-19T15:11:25;4.47;;;2.30;;
55170;SDS011;41060;47.510;8.680;2022-10-19T15:13:54;3.28;;;2.35;;
55170;SDS011;41060;47.510;8.680;2022-10-19T15:16:29;7.25;;;2.35;;
55170;SDS011;41060;47.510;8.680;2022-10-19T15:19:01;5.10;;;2.58;;
55170;SDS011;41060;47.510;8.680;2022-10-19T15:21:29;5.57;;;2.78;;
55170;SDS011;41060;47.510;8.680;2022-10-19T15:24:04;4.85;;;2.63;;
55170;SDS011;41060;47.510;8.680;2022-10-19T15:26:33;5.22;;;2.58;;
55170;SDS011;41060;47.510;8.680;2022-10-19T15:29:06;5.25;;;2.55;;
55170;SDS011;41060;47.510;8.680;2022-10-19T15:31:36;4.68;;;2.78;;
55170;SDS011;41060;47.510;8.680;2022-10-19T15:34:03;5.43;;;3.25;;
55170;SDS011;41060;47.510;8.680;2022-10-19T15:36:30;4.50;;;2.72;;
55170;SDS011;41060;47.510;8.680;2022-10-19T15:38:59;5.03;;;2.67;;
55170;SDS011;41060;47.510;8.680;2022-10-19T15:41:28;4.45;;;2.63;;